sensor_id;sensor_type;location;lat;lon;timestamp;pressure;altitude;pressure_sealevel;temperature;humidity
30935;BME280;51033;42.648;23.292;2023-02-11T00:00:41;95414.63;;;-2.16;43.45
30935;BME280;51033;42.648;23.292;2023-02-11T00:03:07;95431.09;;;-2.02;43.36
30935;BME280;51033;42.648;23.292;2023-02-11T00:05:33;95424.09;;;-2.02;43.12
30935;BME280;51033;42.648;23.292;2023-02-11T00:07:58;95413.41;;;-2.20;43.33
30935;BME280;51033;42.648;23.292;2023-02-11T00:10:24;95432.31;;;-2.05;43.22
30935;BME280;51033;42.648;23.292;2023-02-11T00:12:49;95426.44;;;-2.13;43.13
30935;BME280;51033;42.648;23.292;2023-02-11T00:15:15;95389.88;;;-2.33;43.31
30935;BME280;51033;42.648;23.292;2023-02-11T00:17:40;95441.50;;;-2.09;42.91
30935;BME280;51033;42.648;23.292;2023-02-11T00:20:06;95433.00;;;-2.31;43.31
30935;BME280;51033;42.648;23.292;2023-02-11T00:22:31;95435.19;;;-2.34;43.40
30935;BME280;51033;42.648;23.292;2023-02-11T00:24:57;95407.22;;;-2.53;43.54
30935;BME280;51033;42.648;23.292;2023-02-11T00:27:22;95425.63;;;-2.61;43.65
30935;BME280;51033;42.648;23.292;2023-02-11T00:29:48;95437.75;;;-2.41;43.76
30935;BME280;51033;42.648;23.292;2023-02-11T00:32:13;95445.41;;;-2.39;43.88
30935;BME280;51033;42.648;23.292;2023-02-11T00:34:39;95450.38;;;-2.44;43.91
30935;BME280;51033;42.648;23.292;2023-02-11T00:37:05;95448.00;;;-2.39;43.90
30935;BME280;51033;42.648;23.292;2023-02-11T00:39:30;95443.78;;;-2.40;43.61
30935;BME280;51033;42.648;23.292;2023-02-11T00:41:56;95414.44;;;-2.55;43.45
30935;BME280;51033;42.648;23.292;2023-02-11T00:44:22;95429.03;;;-2.61;43.66
30935;BME280;51033;42.648;23.292;2023-02-11T00:46:50;95435.28;;;-2.55;43.42
30935;BME280;51033;42.648;23.292;2023-02-11T00:49:17;95431.34;;;-2.45;43.79
30935;BME280;51033;42.648;23.292;2023-02-11T00:51:42;95414.09;;;-2.46;43.37
30935;BME280;51033;42.648;23.292;2023-02-11T00:54:07;95396.38;;;-2.63;43.37
30935;BME280;51033;42.648;23.292;2023-02-11T00:56:33;95419.22;;;-2.59;43.39
30935;BME280;51033;42.648;23.292;2023-02-11T00:58:58;95410.63;;;-2.53;43.16
30935;BME280;51033;42.648;23.292;2023-02-11T01:01:24;95421.69;;;-2.51;43.48
30935;BME280;51033;42.648;23.292;2023-02-11T01:03:50;95420.25;;;-2.53;43.03
30935;BME280;51033;42.648;23.292;2023-02-11T01:06:16;95414.09;;;-2.46;42.54
30935;BME280;51033;42.648;23.292;2023-02-11T01:08:41;95414.91;;;-2.45;42.68
30935;BME280;51033;42.648;23.292;2023-02-11T01:11:13;95423.47;;;-2.86;43.69
30935;BME280;51033;42.648;23.292;2023-02-11T01:13:39;95405.25;;;-2.86;43.40
30935;BME280;51033;42.648;23.292;2023-02-11T01:16:09;95430.72;;;-2.81;43.64
30935;BME280;51033;42.648;23.292;2023-02-11T01:18:35;95424.69;;;-2.82;43.77
30935;BME280;51033;42.648;23.292;2023-02-11T01:21:01;95385.63;;;-3.16;43.81
30935;BME280;51033;42.648;23.292;2023-02-11T01:23:26;95405.00;;;-2.91;43.51
30935;BME280;51033;42.648;23.292;2023-02-11T01:25:52;95397.59;;;-2.94;43.68
30935;BME280;51033;42.648;23.292;2023-02-11T01:28:24;95420.91;;;-2.79;43.82
30935;BME280;51033;42.648;23.292;2023-02-11T01:30:50;95427.13;;;-2.80;43.56
30935;BME280;51033;42.648;23.292;2023-02-11T01:33:16;95410.34;;;-3.27;44.48
30935;BME280;51033;42.648;23.292;2023-02-11T01:35:42;95405.69;;;-3.10;44.19
30935;BME280;51033;42.648;23.292;2023-02-11T01:38:15;95421.84;;;-2.87;44.18
30935;BME280;51033;42.648;23.292;2023-02-11T01:40:58;95417.09;;;-2.77;43.40
30935;BME280;51033;42.648;23.292;2023-02-11T01:43:25;95407.44;;;-2.83;43.12
30935;BME280;51033;42.648;23.292;2023-02-11T01:48:49;95410.28;;;-2.78;43.09
30935;BME280;51033;42.648;23.292;2023-02-11T01:51:23;95406.16;;;-3.00;43.65
30935;BME280;51033;42.648;23.292;2023-02-11T01:53:49;95410.44;;;-2.86;43.51
30935;BME280;51033;42.648;23.292;2023-02-11T01:56:37;95398.41;;;-2.93;43.35
30935;BME280;51033;42.648;23.292;2023-02-11T01:59:40;95408.13;;;-3.02;43.89
30935;BME280;51033;42.648;23.292;2023-02-11T02:02:10;95386.38;;;-3.22;43.67
30935;BME280;51033;42.648;23.292;2023-02-11T02:04:54;95392.19;;;-3.20;44.33
30935;BME280;51033;42.648;23.292;2023-02-11T02:07:49;95405.28;;;-3.07;44.33
30935;BME280;51033;42.648;23.292;2023-02-11T02:10:20;95393.28;;;-3.08;44.27
30935;BME280;51033;42.648;23.292;2023-02-11T02:12:47;95410.97;;;-2.97;44.05
30935;BME280;51033;42.648;23.292;2023-02-11T02:15:33;95393.91;;;-3.06;44.03
30935;BME280;51033;42.648;23.292;2023-02-11T02:37:14;95403.16;;;-3.74;44.26
30935;BME280;51033;42.648;23.292;2023-02-11T02:39:42;95368.56;;;-3.95;44.36
30935;BME280;51033;42.648;23.292;2023-02-11T02:42:10;95347.13;;;-4.19;44.15
30935;BME280;51033;42.648;23.292;2023-02-11T02:44:36;95380.38;;;-3.93;44.09
30935;BME280;51033;42.648;23.292;2023-02-11T02:47:02;95387.84;;;-4.05;44.06
30935;BME280;51033;42.648;23.292;2023-02-11T02:49:27;95391.06;;;-4.03;44.23
30935;BME280;51033;42.648;23.292;2023-02-11T03:02:51;95397.63;;;-4.07;44.72
30935;BME280;51033;42.648;23.292;2023-02-11T03:06:26;95402.91;;;-4.00;44.46
30935;BME280;51033;42.648;23.292;2023-02-11T03:10:55;95383.50;;;-4.19;44.75
30935;BME280;51033;42.648;23.292;2023-02-11T03:13:26;95382.84;;;-4.06;44.05
30935;BME280;51033;42.648;23.292;2023-02-11T03:15:56;95398.88;;;-3.81;44.32
30935;BME280;51033;42.648;23.292;2023-02-11T03:18:26;95401.03;;;-3.85;44.68
30935;BME280;51033;42.648;23.292;2023-02-11T03:20:55;95397.44;;;-4.05;44.69
30935;BME280;51033;42.648;23.292;2023-02-11T03:23:27;95412.78;;;-3.89;44.50
30935;BME280;51033;42.648;23.292;2023-02-11T03:28:39;95378.81;;;-4.09;43.94
30935;BME280;51033;42.648;23.292;2023-02-11T03:31:16;95398.09;;;-3.82;43.59
30935;BME280;51033;42.648;23.292;2023-02-11T03:34:00;95363.28;;;-4.02;43.70
30935;BME280;51033;42.648;23.292;2023-02-11T03:36:33;95332.34;;;-4.18;43.87
30935;BME280;51033;42.648;23.292;2023-02-11T03:39:02;95396.28;;;-3.81;43.62
30935;BME280;51033;42.648;23.292;2023-02-11T03:41:29;95393.50;;;-4.01;43.40
30935;BME280;51033;42.648;23.292;2023-02-11T03:43:56;95387.91;;;-3.98;43.54
30935;BME280;51033;42.648;23.292;2023-02-11T03:46:34;95391.38;;;-4.12;43.51
30935;BME280;51033;42.648;23.292;2023-02-11T03:49:03;95375.72;;;-4.33;43.82
30935;BME280;51033;42.648;23.292;2023-02-11T03:51:31;95367.16;;;-4.49;43.94
30935;BME280;51033;42.648;23.292;2023-02-11T03:53:59;95375.38;;;-4.30;43.85
30935;BME280;51033;42.648;23.292;2023-02-11T03:56:29;95381.59;;;-4.46;43.72
30935;BME280;51033;42.648;23.292;2023-02-11T03:58:57;95376.78;;;-4.49;44.34
30935;BME280;51033;42.648;23.292;2023-02-11T04:01:22;95398.94;;;-4.32;44.06
30935;BME280;51033;42.648;23.292;2023-02-11T04:03:48;95395.06;;;-4.21;43.96
30935;BME280;51033;42.648;23.292;2023-02-11T04:06:16;95380.63;;;-4.24;44.36
30935;BME280;51033;42.648;23.292;2023-02-11T04:08:42;95393.81;;;-4.25;44.61
30935;BME280;51033;42.648;23.292;2023-02-11T04:11:07;95379.09;;;-4.18;44.09
30935;BME280;51033;42.648;23.292;2023-02-11T04:13:33;95383.00;;;-4.08;43.66
30935;BME280;51033;42.648;23.292;2023-02-11T04:15:58;95375.31;;;-4.01;43.47
30935;BME280;51033;42.648;23.292;2023-02-11T04:18:23;95391.50;;;-3.78;43.27
30935;BME280;51033;42.648;23.292;2023-02-11T04:20:49;95397.13;;;-3.74;43.10
30935;BME280;51033;42.648;23.292;2023-02-11T04:23:15;95399.00;;;-3.89;42.87
30935;BME280;51033;42.648;23.292;2023-02-11T04:25:41;95389.81;;;-3.85;42.62
30935;BME280;51033;42.648;23.292;2023-02-11T04:28:06;95390.28;;;-3.82;42.92
30935;BME280;51033;42.648;23.292;2023-02-11T04:30:32;95391.69;;;-3.79;42.80
30935;BME280;51033;42.648;23.292;2023-02-11T04:32:57;95357.97;;;-3.94;42.89
30935;BME280;51033;42.648;23.292;2023-02-11T04:35:23;95374.22;;;-3.85;42.85
30935;BME280;51033;42.648;23.292;2023-02-11T04:37:48;95390.22;;;-3.67;42.48
30935;BME280;51033;42.648;23.292;2023-02-11T04:40:14;95371.56;;;-3.71;41.84
30935;BME280;51033;42.648;23.292;2023-02-11T04:42:39;95378.91;;;-3.81;42.03
30935;BME280;51033;42.648;23.292;2023-02-11T04:45:05;95369.16;;;-3.72;42.49
30935;BME280;51033;42.648;23.292;2023-02-11T04:47:32;95338.03;;;-3.87;42.00
30935;BME280;51033;42.648;23.292;2023-02-11T04:49:57;95384.06;;;-3.60;42.22
30935;BME280;51033;42.648;23.292;2023-02-11T04:52:22;95382.59;;;-3.47;42.14
30935;BME280;51033;42.648;23.292;2023-02-11T04:54:48;95390.56;;;-3.49;42.19
30935;BME280;51033;42.648;23.292;2023-02-11T04:57:13;95330.28;;;-3.80;42.04
30935;BME280;51033;42.648;23.292;2023-02-11T04:59:39;95370.94;;;-3.51;41.75
30935;BME280;51033;42.648;23.292;2023-02-11T05:02:04;95366.09;;;-3.54;41.55
30935;BME280;51033;42.648;23.292;2023-02-11T05:04:30;95354.72;;;-3.75;41.90
30935;BME280;51033;42.648;23.292;2023-02-11T05:07:02;95344.22;;;-3.88;42.24
30935;BME280;51033;42.648;23.292;2023-02-11T05:09:28;95366.34;;;-3.71;42.53
30935;BME280;51033;42.648;23.292;2023-02-11T05:11:53;95341.69;;;-3.81;42.84
30935;BME280;51033;42.648;23.292;2023-02-11T05:14:19;95325.59;;;-3.91;42.68
30935;BME280;51033;42.648;23.292;2023-02-11T05:16:44;95374.38;;;-3.72;42.37
30935;BME280;51033;42.648;23.292;2023-02-11T05:19:10;95323.75;;;-3.97;42.23
30935;BME280;51033;42.648;23.292;2023-02-11T05:21:35;95330.47;;;-4.03;41.90
30935;BME280;51033;42.648;23.292;2023-02-11T05:24:00;95373.81;;;-3.89;42.46
30935;BME280;51033;42.648;23.292;2023-02-11T05:26:26;95373.06;;;-3.83;42.28
30935;BME280;51033;42.648;23.292;2023-02-11T05:28:51;95374.06;;;-3.84;42.83
30935;BME280;51033;42.648;23.292;2023-02-11T05:31:17;95376.16;;;-3.73;42.66
30935;BME280;51033;42.648;23.292;2023-02-11T05:33:42;95376.97;;;-3.72;42.81
30935;BME280;51033;42.648;23.292;2023-02-11T05:36:11;95356.84;;;-3.85;42.75
30935;BME280;51033;42.648;23.292;2023-02-11T05:38:37;95354.25;;;-3.85;42.47
30935;BME280;51033;42.648;23.292;2023-02-11T05:41:04;95372.56;;;-3.93;42.80
30935;BME280;51033;42.648;23.292;2023-02-11T05:43:30;95373.75;;;-3.95;43.02
30935;BME280;51033;42.648;23.292;2023-02-11T05:45:55;95377.75;;;-4.14;43.25
30935;BME280;51033;42.648;23.292;2023-02-11T05:48:21;95352.88;;;-4.02;42.80
30935;BME280;51033;42.648;23.292;2023-02-11T05:50:47;95376.66;;;-3.84;43.10
30935;BME280;51033;42.648;23.292;2023-02-11T05:53:12;95372.13;;;-3.96;43.55
30935;BME280;51033;42.648;23.292;2023-02-11T05:55:38;95370.94;;;-3.94;43.69
30935;BME280;51033;42.648;23.292;2023-02-11T05:58:04;95362.56;;;-3.96;43.87
30935;BME280;51033;42.648;23.292;2023-02-11T06:00:29;95357.22;;;-4.09;44.01
30935;BME280;51033;42.648;23.292;2023-02-11T06:02:55;95367.75;;;-3.96;44.35
30935;BME280;51033;42.648;23.292;2023-02-11T06:05:20;95356.22;;;-4.08;44.23
30935;BME280;51033;42.648;23.292;2023-02-11T06:07:45;95355.63;;;-4.10;44.33
30935;BME280;51033;42.648;23.292;2023-02-11T06:10:11;95385.81;;;-3.88;44.53
30935;BME280;51033;42.648;23.292;2023-02-11T06:12:37;95375.81;;;-3.91;44.62
30935;BME280;51033;42.648;23.292;2023-02-11T06:15:03;95395.91;;;-3.78;44.49
30935;BME280;51033;42.648;23.292;2023-02-11T06:17:29;95379.50;;;-3.79;44.21
30935;BME280;51033;42.648;23.292;2023-02-11T06:19:59;95374.53;;;-3.74;44.06
30935;BME280;51033;42.648;23.292;2023-02-11T06:22:25;95377.63;;;-3.64;43.93
30935;BME280;51033;42.648;23.292;2023-02-11T06:24:51;95390.53;;;-3.77;44.17
30935;BME280;51033;42.648;23.292;2023-02-11T06:27:17;95365.50;;;-3.78;43.80
30935;BME280;51033;42.648;23.292;2023-02-11T06:29:44;95384.63;;;-3.64;43.72
30935;BME280;51033;42.648;23.292;2023-02-11T06:32:10;95393.44;;;-3.86;44.53
30935;BME280;51033;42.648;23.292;2023-02-11T06:34:35;95376.34;;;-3.74;44.09
30935;BME280;51033;42.648;23.292;2023-02-11T06:37:00;95383.97;;;-3.73;44.51
30935;BME280;51033;42.648;23.292;2023-02-11T06:39:26;95360.81;;;-3.89;44.71
30935;BME280;51033;42.648;23.292;2023-02-11T06:41:51;95397.72;;;-3.58;44.50
30935;BME280;51033;42.648;23.292;2023-02-11T06:44:17;95379.16;;;-3.76;45.17
30935;BME280;51033;42.648;23.292;2023-02-11T06:46:43;95388.53;;;-3.53;44.86
30935;BME280;51033;42.648;23.292;2023-02-11T06:49:09;95384.50;;;-3.56;44.87
30935;BME280;51033;42.648;23.292;2023-02-11T06:51:35;95380.97;;;-3.48;44.75
30935;BME280;51033;42.648;23.292;2023-02-11T06:54:01;95372.69;;;-3.59;44.37
30935;BME280;51033;42.648;23.292;2023-02-11T06:56:26;95393.00;;;-3.47;44.70
30935;BME280;51033;42.648;23.292;2023-02-11T06:58:53;95394.84;;;-3.63;44.76
30935;BME280;51033;42.648;23.292;2023-02-11T07:01:23;95367.06;;;-3.83;44.91
30935;BME280;51033;42.648;23.292;2023-02-11T07:03:49;95398.50;;;-3.57;44.64
30935;BME280;51033;42.648;23.292;2023-02-11T07:06:21;95402.22;;;-3.66;44.72
30935;BME280;51033;42.648;23.292;2023-02-11T07:08:47;95380.72;;;-3.75;44.64
30935;BME280;51033;42.648;23.292;2023-02-11T07:11:21;95390.25;;;-3.61;44.40
30935;BME280;51033;42.648;23.292;2023-02-11T07:13:48;95400.31;;;-3.58;44.46
30935;BME280;51033;42.648;23.292;2023-02-11T07:16:15;95397.13;;;-3.74;45.34
30935;BME280;51033;42.648;23.292;2023-02-11T07:18:41;95393.91;;;-3.55;45.58
30935;BME280;51033;42.648;23.292;2023-02-11T07:21:08;95375.91;;;-3.57;45.44
30935;BME280;51033;42.648;23.292;2023-02-11T07:23:35;95386.56;;;-3.51;45.56
30935;BME280;51033;42.648;23.292;2023-02-11T07:26:06;95382.69;;;-3.34;45.33
30935;BME280;51033;42.648;23.292;2023-02-11T07:28:36;95386.25;;;-3.84;46.87
30935;BME280;51033;42.648;23.292;2023-02-11T07:34:01;95385.84;;;-3.39;46.57
30935;BME280;51033;42.648;23.292;2023-02-11T07:36:28;95374.84;;;-3.13;45.94
30935;BME280;51033;42.648;23.292;2023-02-11T07:38:55;95365.94;;;-3.25;44.37
30935;BME280;51033;42.648;23.292;2023-02-11T07:41:23;95353.91;;;-3.26;44.11
30935;BME280;51033;42.648;23.292;2023-02-11T07:43:50;95356.91;;;-3.57;45.72
30935;BME280;51033;42.648;23.292;2023-02-11T07:46:19;95336.19;;;-3.44;45.23
30935;BME280;51033;42.648;23.292;2023-02-11T07:48:51;95361.88;;;-3.34;45.11
30935;BME280;51033;42.648;23.292;2023-02-11T07:51:26;95349.09;;;-3.29;45.11
30935;BME280;51033;42.648;23.292;2023-02-11T07:53:53;95354.00;;;-3.13;44.99
30935;BME280;51033;42.648;23.292;2023-02-11T07:56:20;95357.22;;;-2.77;44.47
30935;BME280;51033;42.648;23.292;2023-02-11T07:58:46;95354.25;;;-2.74;43.40
30935;BME280;51033;42.648;23.292;2023-02-11T08:01:22;95345.47;;;-3.00;43.75
30935;BME280;51033;42.648;23.292;2023-02-11T08:03:49;95356.41;;;-2.77;43.61
30935;BME280;51033;42.648;23.292;2023-02-11T08:06:17;95327.41;;;-2.67;42.94
30935;BME280;51033;42.648;23.292;2023-02-11T08:08:44;95329.34;;;-2.83;43.67
30935;BME280;51033;42.648;23.292;2023-02-11T08:11:22;95321.81;;;-2.64;42.97
30935;BME280;51033;42.648;23.292;2023-02-11T08:13:48;95348.53;;;-2.49;43.04
30935;BME280;51033;42.648;23.292;2023-02-11T08:16:25;95332.56;;;-2.81;43.42
30935;BME280;51033;42.648;23.292;2023-02-11T08:18:52;95346.13;;;-2.92;43.88
30935;BME280;51033;42.648;23.292;2023-02-11T08:21:19;95348.94;;;-2.87;44.35
30935;BME280;51033;42.648;23.292;2023-02-11T08:23:45;95352.28;;;-2.65;43.40
30935;BME280;51033;42.648;23.292;2023-02-11T08:26:22;95307.41;;;-3.36;44.12
30935;BME280;51033;42.648;23.292;2023-02-11T08:28:49;95367.72;;;-2.98;44.22
30935;BME280;51033;42.648;23.292;2023-02-11T08:31:17;95366.06;;;-3.05;44.45
30935;BME280;51033;42.648;23.292;2023-02-11T08:33:44;95361.38;;;-2.89;44.06
30935;BME280;51033;42.648;23.292;2023-02-11T08:36:14;95356.16;;;-2.89;44.44
30935;BME280;51033;42.648;23.292;2023-02-11T08:38:40;95327.47;;;-2.95;44.55
30935;BME280;51033;42.648;23.292;2023-02-11T08:41:06;95348.63;;;-2.71;44.71
30935;BME280;51033;42.648;23.292;2023-02-11T08:43:32;95321.69;;;-2.91;45.45
30935;BME280;51033;42.648;23.292;2023-02-11T08:45:58;95340.59;;;-2.76;45.14
30935;BME280;51033;42.648;23.292;2023-02-11T08:48:23;95342.44;;;-2.63;45.85
30935;BME280;51033;42.648;23.292;2023-02-11T08:50:49;95355.78;;;-2.45;45.86
30935;BME280;51033;42.648;23.292;2023-02-11T08:53:14;95343.50;;;-2.51;45.72
30935;BME280;51033;42.648;23.292;2023-02-11T08:55:39;95310.91;;;-2.88;46.96
30935;BME280;51033;42.648;23.292;2023-02-11T08:58:05;95358.38;;;-2.45;46.12
30935;BME280;51033;42.648;23.292;2023-02-11T09:00:38;95352.19;;;-2.85;46.50
30935;BME280;51033;42.648;23.292;2023-02-11T09:03:06;95360.31;;;-2.60;46.95
30935;BME280;51033;42.648;23.292;2023-02-11T09:05:32;95340.13;;;-2.38;46.13
30935;BME280;51033;42.648;23.292;2023-02-11T09:07:57;95336.38;;;-2.22;45.42
30935;BME280;51033;42.648;23.292;2023-02-11T09:10:22;95353.66;;;-2.15;46.16
30935;BME280;51033;42.648;23.292;2023-02-11T09:12:48;95340.50;;;-2.95;48.04
30935;BME280;51033;42.648;23.292;2023-02-11T09:15:13;95355.91;;;-2.59;47.11
30935;BME280;51033;42.648;23.292;2023-02-11T09:17:38;95317.72;;;-2.33;46.96
30935;BME280;51033;42.648;23.292;2023-02-11T09:20:04;95338.34;;;-2.44;46.77
30935;BME280;51033;42.648;23.292;2023-02-11T09:22:30;95310.31;;;-2.22;45.96
30935;BME280;51033;42.648;23.292;2023-02-11T09:24:55;95312.75;;;-2.21;45.56
30935;BME280;51033;42.648;23.292;2023-02-11T09:27:20;95339.88;;;-1.96;45.14
30935;BME280;51033;42.648;23.292;2023-02-11T09:29:46;95341.06;;;-2.05;44.80
30935;BME280;51033;42.648;23.292;2023-02-11T09:32:11;95325.34;;;-2.31;45.48
30935;BME280;51033;42.648;23.292;2023-02-11T09:34:36;95333.13;;;-2.44;46.55
30935;BME280;51033;42.648;23.292;2023-02-11T09:37:02;95306.34;;;-1.99;43.37
30935;BME280;51033;42.648;23.292;2023-02-11T09:39:27;95324.84;;;-1.80;43.67
30935;BME280;51033;42.648;23.292;2023-02-11T09:42:45;95329.69;;;-1.51;43.50
30935;BME280;51033;42.648;23.292;2023-02-11T09:45:12;95327.88;;;-1.70;44.73
30935;BME280;51033;42.648;23.292;2023-02-11T09:47:53;95310.59;;;-1.32;43.55
30935;BME280;51033;42.648;23.292;2023-02-11T09:50:30;95283.09;;;-1.54;44.35
30935;BME280;51033;42.648;23.292;2023-02-11T09:53:10;95277.66;;;-1.33;42.69
30935;BME280;51033;42.648;23.292;2023-02-11T09:55:41;95300.38;;;-1.47;44.03
30935;BME280;51033;42.648;23.292;2023-02-11T09:58:15;95301.16;;;-1.53;44.07
30935;BME280;51033;42.648;23.292;2023-02-11T10:00:50;95291.13;;;-1.49;44.28
30935;BME280;51033;42.648;23.292;2023-02-11T10:08:46;95281.38;;;-0.89;42.63
30935;BME280;51033;42.648;23.292;2023-02-11T10:22:21;95232.56;;;-0.51;40.25
30935;BME280;51033;42.648;23.292;2023-02-11T10:24:53;95243.09;;;-0.64;40.10
30935;BME280;51033;42.648;23.292;2023-02-11T10:27:27;95212.13;;;-0.67;39.67
30935;BME280;51033;42.648;23.292;2023-02-11T10:32:43;95226.25;;;-0.81;40.49
30935;BME280;51033;42.648;23.292;2023-02-11T10:35:18;95194.44;;;-1.10;40.84
30935;BME280;51033;42.648;23.292;2023-02-11T10:37:45;95185.66;;;-0.77;40.55
30935;BME280;51033;42.648;23.292;2023-02-11T10:40:13;95198.41;;;-0.56;38.99
30935;BME280;51033;42.648;23.292;2023-02-11T10:42:41;95189.56;;;-0.55;39.19
30935;BME280;51033;42.648;23.292;2023-02-11T10:45:20;95196.94;;;-0.14;38.92
30935;BME280;51033;42.648;23.292;2023-02-11T10:47:46;95150.59;;;-0.32;37.34
30935;BME280;51033;42.648;23.292;2023-02-11T10:52:43;95162.50;;;-0.36;37.33
30935;BME280;51033;42.648;23.292;2023-02-11T10:57:37;95165.81;;;0.03;36.99
30935;BME280;51033;42.648;23.292;2023-02-11T11:00:18;95173.13;;;-0.06;37.80
30935;BME280;51033;42.648;23.292;2023-02-11T11:02:50;95163.06;;;-0.09;38.69
30935;BME280;51033;42.648;23.292;2023-02-11T11:05:19;95124.28;;;-0.37;38.94
30935;BME280;51033;42.648;23.292;2023-02-11T11:07:54;95163.47;;;-0.05;38.91
30935;BME280;51033;42.648;23.292;2023-02-11T11:10:33;95147.97;;;-0.32;39.36
30935;BME280;51033;42.648;23.292;2023-02-11T11:13:00;95147.25;;;-0.39;39.76
30935;BME280;51033;42.648;23.292;2023-02-11T11:15:28;95161.16;;;-0.45;39.97
30935;BME280;51033;42.648;23.292;2023-02-11T11:18:13;95148.28;;;0.03;39.81
30935;BME280;51033;42.648;23.292;2023-02-11T11:21:04;95129.63;;;-0.00;39.93
30935;BME280;51033;42.648;23.292;2023-02-11T11:23:30;95126.97;;;0.24;39.08
30935;BME280;51033;42.648;23.292;2023-02-11T11:26:10;95139.97;;;0.31;39.09
30935;BME280;51033;42.648;23.292;2023-02-11T11:31:14;95113.22;;;0.65;38.57
30935;BME280;51033;42.648;23.292;2023-02-11T11:33:42;95128.00;;;0.42;38.57
30935;BME280;51033;42.648;23.292;2023-02-11T11:36:14;95126.31;;;0.47;37.86
30935;BME280;51033;42.648;23.292;2023-02-11T11:38:51;95116.16;;;0.57;38.33
30935;BME280;51033;42.648;23.292;2023-02-11T11:44:21;95129.81;;;0.77;38.21
30935;BME280;51033;42.648;23.292;2023-02-11T11:46:52;95129.97;;;1.12;37.95
30935;BME280;51033;42.648;23.292;2023-02-11T11:49:32;95119.72;;;0.45;38.80
30935;BME280;51033;42.648;23.292;2023-02-11T11:52:40;95113.72;;;-0.24;40.12
30935;BME280;51033;42.648;23.292;2023-02-11T11:55:21;95136.22;;;-0.23;40.32
30935;BME280;51033;42.648;23.292;2023-02-11T11:57:47;95094.63;;;0.19;39.04
30935;BME280;51033;42.648;23.292;2023-02-11T12:00:19;95093.16;;;0.23;38.84
30935;BME280;51033;42.648;23.292;2023-02-11T12:05:31;95092.41;;;0.16;39.05
30935;BME280;51033;42.648;23.292;2023-02-11T12:35:55;95055.53;;;1.02;35.10
30935;BME280;51033;42.648;23.292;2023-02-11T12:58:59;95022.72;;;1.64;35.75
30935;BME280;51033;42.648;23.292;2023-02-11T13:01:33;95004.22;;;1.36;35.94
30935;BME280;51033;42.648;23.292;2023-02-11T13:04:27;94997.63;;;1.68;35.29
30935;BME280;51033;42.648;23.292;2023-02-11T13:07:08;94974.25;;;1.66;35.83
30935;BME280;51033;42.648;23.292;2023-02-11T13:09:51;95005.03;;;1.59;36.33
30935;BME280;51033;42.648;23.292;2023-02-11T13:12:19;94996.97;;;1.96;35.39
30935;BME280;51033;42.648;23.292;2023-02-11T13:15:08;94998.16;;;2.28;35.61
30935;BME280;51033;42.648;23.292;2023-02-11T13:18:28;95010.06;;;2.07;34.51
30935;BME280;51033;42.648;23.292;2023-02-11T13:26:03;95000.88;;;2.33;34.52
30935;BME280;51033;42.648;23.292;2023-02-11T13:31:01;94968.44;;;2.39;33.78
30935;BME280;51033;42.648;23.292;2023-02-11T13:38:27;95004.81;;;2.76;34.25
30935;BME280;51033;42.648;23.292;2023-02-11T13:41:09;94954.63;;;2.61;33.73
30935;BME280;51033;42.648;23.292;2023-02-11T13:43:40;94986.56;;;2.97;33.78
30935;BME280;51033;42.648;23.292;2023-02-11T13:46:08;94995.97;;;3.10;33.66
30935;BME280;51033;42.648;23.292;2023-02-11T13:48:46;94975.69;;;3.22;33.11
30935;BME280;51033;42.648;23.292;2023-02-11T13:51:15;94957.91;;;3.13;32.76
30935;BME280;51033;42.648;23.292;2023-02-11T13:53:54;94965.09;;;3.17;32.01
30935;BME280;51033;42.648;23.292;2023-02-11T13:56:33;94969.44;;;3.28;32.67
30935;BME280;51033;42.648;23.292;2023-02-11T13:59:01;94957.75;;;3.36;32.92
30935;BME280;51033;42.648;23.292;2023-02-11T14:04:50;94956.31;;;3.28;32.27
30935;BME280;51033;42.648;23.292;2023-02-11T14:10:58;94960.00;;;3.27;31.69
30935;BME280;51033;42.648;23.292;2023-02-11T14:13:31;94951.53;;;3.42;31.73
30935;BME280;51033;42.648;23.292;2023-02-11T14:16:08;94914.03;;;3.13;31.79
30935;BME280;51033;42.648;23.292;2023-02-11T14:38:25;94956.78;;;3.25;32.76
30935;BME280;51033;42.648;23.292;2023-02-11T14:44:06;94954.16;;;2.92;33.35
30935;BME280;51033;42.648;23.292;2023-02-11T14:46:32;94933.53;;;2.84;33.80
30935;BME280;51033;42.648;23.292;2023-02-11T14:49:01;94937.63;;;2.80;33.96
30935;BME280;51033;42.648;23.292;2023-02-11T14:51:34;94951.53;;;2.92;33.88
30935;BME280;51033;42.648;23.292;2023-02-11T14:54:16;94962.97;;;2.86;34.04
30935;BME280;51033;42.648;23.292;2023-02-11T14:56:43;94939.00;;;2.82;34.04
30935;BME280;51033;42.648;23.292;2023-02-11T14:59:17;94952.44;;;2.69;34.62
30935;BME280;51033;42.648;23.292;2023-02-11T15:01:45;94943.78;;;2.69;34.90
30935;BME280;51033;42.648;23.292;2023-02-11T15:06:52;94954.41;;;2.34;35.19
30935;BME280;51033;42.648;23.292;2023-02-11T15:09:43;94958.78;;;2.57;35.49
30935;BME280;51033;42.648;23.292;2023-02-11T15:12:19;94937.34;;;2.48;35.83
30935;BME280;51033;42.648;23.292;2023-02-11T15:14:50;94944.94;;;2.61;35.84
30935;BME280;51033;42.648;23.292;2023-02-11T15:17:21;94934.41;;;2.44;35.89
30935;BME280;51033;42.648;23.292;2023-02-11T15:19:51;94944.28;;;2.54;35.92
30935;BME280;51033;42.648;23.292;2023-02-11T15:22:29;94935.34;;;2.55;35.73
30935;BME280;51033;42.648;23.292;2023-02-11T15:25:17;94929.16;;;2.44;35.77
30935;BME280;51033;42.648;23.292;2023-02-11T15:27:52;94930.28;;;2.48;36.09
30935;BME280;51033;42.648;23.292;2023-02-11T15:32:56;94919.75;;;2.48;36.57
30935;BME280;51033;42.648;23.292;2023-02-11T15:35:30;94905.66;;;2.38;36.13
30935;BME280;51033;42.648;23.292;2023-02-11T15:37:57;94924.84;;;2.38;35.80
30935;BME280;51033;42.648;23.292;2023-02-11T15:40:25;94917.34;;;2.30;35.83
30935;BME280;51033;42.648;23.292;2023-02-11T15:42:59;94914.78;;;2.35;36.29
30935;BME280;51033;42.648;23.292;2023-02-11T15:45:38;94907.78;;;2.24;35.30
30935;BME280;51033;42.648;23.292;2023-02-11T15:48:10;94923.97;;;2.21;35.42
30935;BME280;51033;42.648;23.292;2023-02-11T15:50:38;94910.81;;;2.04;35.72
30935;BME280;51033;42.648;23.292;2023-02-11T15:53:40;94929.59;;;2.13;36.04
30935;BME280;51033;42.648;23.292;2023-02-11T15:58:37;94931.31;;;2.07;35.54